sensor_id;sensor_type;location;lat;lon;timestamp;P1;durP1;ratioP1;P2;durP2;ratioP2
10277;SDS011;5184;51.376;7.148;2023-06-14T00:00:58;7.97;;;5.97;;
10277;SDS011;5184;51.376;7.148;2023-06-14T00:03:25;6.43;;;5.80;;
10277;SDS011;5184;51.376;7.148;2023-06-14T00:05:52;7.20;;;6.50;;
10277;SDS011;5184;51.376;7.148;2023-06-14T00:08:18;6.23;;;5.70;;
10277;SDS011;5184;51.376;7.148;2023-06-14T00:10:45;6.47;;;5.87;;
10277;SDS011;5184;51.376;7.148;2023-06-14T00:13:11;7.63;;;6.20;;
10277;SDS011;5184;51.376;7.148;2023-06-14T00:15:38;7.70;;;6.37;;
10277;SDS011;5184;51.376;7.148;2023-06-14T00:18:05;6.03;;;5.53;;
10277;SDS011;5184;51.376;7.148;2023-06-14T00:20:32;6.90;;;5.97;;
10277;SDS011;5184;51.376;7.148;2023-06-14T00:23:00;6.37;;;5.77;;
10277;SDS011;5184;51.376;7.148;2023-06-14T00:25:27;8.00;;;6.07;;
10277;SDS011;5184;51.376;7.148;2023-06-14T00:27:53;6.90;;;6.20;;
10277;SDS011;5184;51.376;7.148;2023-06-14T00:30:20;10.83;;;6.47;;
10277;SDS011;5184;51.376;7.148;2023-06-14T00:32:46;8.23;;;6.10;;
10277;SDS011;5184;51.376;7.148;2023-06-14T00:35:13;8.63;;;5.73;;
10277;SDS011;5184;51.376;7.148;2023-06-14T00:37:40;7.30;;;5.83;;
10277;SDS011;5184;51.376;7.148;2023-06-14T00:40:07;8.43;;;6.23;;
10277;SDS011;5184;51.376;7.148;2023-06-14T00:42:34;6.87;;;6.17;;
10277;SDS011;5184;51.376;7.148;2023-06-14T00:45:00;6.30;;;5.70;;
10277;SDS011;5184;51.376;7.148;2023-06-14T00:47:28;6.00;;;5.40;;
10277;SDS011;5184;51.376;7.148;2023-06-14T00:49:54;7.17;;;6.40;;
10277;SDS011;5184;51.376;7.148;2023-06-14T00:52:21;8.53;;;6.00;;
10277;SDS011;5184;51.376;7.148;2023-06-14T00:54:47;6.80;;;6.13;;
10277;SDS011;5184;51.376;7.148;2023-06-14T00:57:15;6.60;;;5.93;;
10277;SDS011;5184;51.376;7.148;2023-06-14T00:59:43;7.33;;;5.97;;
10277;SDS011;5184;51.376;7.148;2023-06-14T01:02:10;7.03;;;5.83;;
10277;SDS011;5184;51.376;7.148;2023-06-14T01:04:36;6.97;;;5.80;;
10277;SDS011;5184;51.376;7.148;2023-06-14T01:07:07;8.37;;;5.63;;
10277;SDS011;5184;51.376;7.148;2023-06-14T01:09:37;7.73;;;5.93;;
10277;SDS011;5184;51.376;7.148;2023-06-14T01:12:21;6.50;;;5.50;;
10277;SDS011;5184;51.376;7.148;2023-06-14T01:14:50;7.87;;;5.97;;
10277;SDS011;5184;51.376;7.148;2023-06-14T01:17:18;8.43;;;5.77;;
10277;SDS011;5184;51.376;7.148;2023-06-14T01:19:45;6.23;;;5.63;;
10277;SDS011;5184;51.376;7.148;2023-06-14T01:22:12;8.00;;;5.50;;
10277;SDS011;5184;51.376;7.148;2023-06-14T01:24:40;6.53;;;5.33;;
10277;SDS011;5184;51.376;7.148;2023-06-14T01:27:06;6.37;;;5.50;;
10277;SDS011;5184;51.376;7.148;2023-06-14T01:29:33;6.83;;;5.20;;
10277;SDS011;5184;51.376;7.148;2023-06-14T01:32:00;6.57;;;5.33;;
10277;SDS011;5184;51.376;7.148;2023-06-14T01:34:26;5.87;;;5.27;;
10277;SDS011;5184;51.376;7.148;2023-06-14T01:36:53;6.10;;;5.50;;
10277;SDS011;5184;51.376;7.148;2023-06-14T01:39:20;6.20;;;5.57;;
10277;SDS011;5184;51.376;7.148;2023-06-14T01:41:47;6.07;;;5.47;;
10277;SDS011;5184;51.376;7.148;2023-06-14T01:44:16;5.67;;;5.17;;
10277;SDS011;5184;51.376;7.148;2023-06-14T01:46:42;6.70;;;6.00;;
10277;SDS011;5184;51.376;7.148;2023-06-14T01:49:08;6.90;;;5.77;;
10277;SDS011;5184;51.376;7.148;2023-06-14T01:51:34;7.87;;;5.47;;
10277;SDS011;5184;51.376;7.148;2023-06-14T01:54:01;5.87;;;5.30;;
10277;SDS011;5184;51.376;7.148;2023-06-14T01:56:28;6.50;;;5.17;;
10277;SDS011;5184;51.376;7.148;2023-06-14T01:58:54;6.70;;;5.50;;
10277;SDS011;5184;51.376;7.148;2023-06-14T02:01:21;5.60;;;5.10;;
10277;SDS011;5184;51.376;7.148;2023-06-14T02:03:48;5.87;;;5.37;;
10277;SDS011;5184;51.376;7.148;2023-06-14T02:06:15;7.43;;;5.90;;
10277;SDS011;5184;51.376;7.148;2023-06-14T02:08:43;6.73;;;5.93;;
10277;SDS011;5184;51.376;7.148;2023-06-14T02:11:10;6.67;;;5.47;;
10277;SDS011;5184;51.376;7.148;2023-06-14T02:13:38;6.90;;;6.00;;
10277;SDS011;5184;51.376;7.148;2023-06-14T02:16:05;7.47;;;5.40;;
10277;SDS011;5184;51.376;7.148;2023-06-14T02:18:32;6.10;;;5.50;;
10277;SDS011;5184;51.376;7.148;2023-06-14T02:21:00;6.53;;;5.73;;
10277;SDS011;5184;51.376;7.148;2023-06-14T02:23:26;6.33;;;5.60;;
10277;SDS011;5184;51.376;7.148;2023-06-14T02:25:53;6.07;;;5.47;;
10277;SDS011;5184;51.376;7.148;2023-06-14T02:28:19;6.20;;;5.60;;
10277;SDS011;5184;51.376;7.148;2023-06-14T02:30:46;6.70;;;5.43;;
10277;SDS011;5184;51.376;7.148;2023-06-14T02:33:13;6.10;;;5.50;;
10277;SDS011;5184;51.376;7.148;2023-06-14T02:35:39;7.17;;;5.20;;
10277;SDS011;5184;51.376;7.148;2023-06-14T02:38:06;6.80;;;5.30;;
10277;SDS011;5184;51.376;7.148;2023-06-14T02:40:33;8.07;;;5.97;;
10277;SDS011;5184;51.376;7.148;2023-06-14T02:43:00;6.77;;;5.80;;
10277;SDS011;5184;51.376;7.148;2023-06-14T02:45:27;6.40;;;5.80;;
10277;SDS011;5184;51.376;7.148;2023-06-14T02:47:54;7.80;;;6.20;;
10277;SDS011;5184;51.376;7.148;2023-06-14T02:50:20;6.93;;;5.83;;
10277;SDS011;5184;51.376;7.148;2023-06-14T02:52:47;5.70;;;5.20;;
10277;SDS011;5184;51.376;7.148;2023-06-14T02:55:13;6.77;;;5.77;;
10277;SDS011;5184;51.376;7.148;2023-06-14T02:57:41;6.50;;;5.73;;
10277;SDS011;5184;51.376;7.148;2023-06-14T03:00:08;6.53;;;5.57;;
10277;SDS011;5184;51.376;7.148;2023-06-14T03:02:35;6.17;;;5.57;;
10277;SDS011;5184;51.376;7.148;2023-06-14T03:05:02;8.63;;;6.20;;
10277;SDS011;5184;51.376;7.148;2023-06-14T03:07:29;8.77;;;6.10;;
10277;SDS011;5184;51.376;7.148;2023-06-14T03:09:55;6.67;;;5.70;;
10277;SDS011;5184;51.376;7.148;2023-06-14T03:12:22;6.90;;;5.93;;
10277;SDS011;5184;51.376;7.148;2023-06-14T03:14:48;6.20;;;5.60;;
10277;SDS011;5184;51.376;7.148;2023-06-14T03:17:15;6.40;;;5.80;;
10277;SDS011;5184;51.376;7.148;2023-06-14T03:19:42;7.23;;;6.43;;
10277;SDS011;5184;51.376;7.148;2023-06-14T03:22:09;6.67;;;5.83;;
10277;SDS011;5184;51.376;7.148;2023-06-14T03:24:36;7.17;;;5.70;;
10277;SDS011;5184;51.376;7.148;2023-06-14T03:27:04;8.63;;;5.97;;
10277;SDS011;5184;51.376;7.148;2023-06-14T03:29:30;6.00;;;5.50;;
10277;SDS011;5184;51.376;7.148;2023-06-14T03:32:00;6.70;;;5.90;;
10277;SDS011;5184;51.376;7.148;2023-06-14T03:34:25;6.30;;;5.67;;
10277;SDS011;5184;51.376;7.148;2023-06-14T03:36:52;8.53;;;5.60;;
10277;SDS011;5184;51.376;7.148;2023-06-14T03:39:19;6.23;;;5.40;;
10277;SDS011;5184;51.376;7.148;2023-06-14T03:41:47;6.03;;;5.47;;
10277;SDS011;5184;51.376;7.148;2023-06-14T03:44:15;6.53;;;5.40;;
10277;SDS011;5184;51.376;7.148;2023-06-14T03:46:41;7.37;;;5.30;;
10277;SDS011;5184;51.376;7.148;2023-06-14T03:49:09;6.20;;;5.60;;
10277;SDS011;5184;51.376;7.148;2023-06-14T03:51:36;6.07;;;5.57;;
10277;SDS011;5184;51.376;7.148;2023-06-14T03:54:03;6.43;;;5.83;;
10277;SDS011;5184;51.376;7.148;2023-06-14T03:56:30;6.30;;;5.70;;
10277;SDS011;5184;51.376;7.148;2023-06-14T03:58:57;7.43;;;5.90;;
10277;SDS011;5184;51.376;7.148;2023-06-14T04:01:24;6.40;;;5.77;;
10277;SDS011;5184;51.376;7.148;2023-06-14T04:03:51;6.90;;;5.17;;
10277;SDS011;5184;51.376;7.148;2023-06-14T04:06:18;6.80;;;6.03;;
10277;SDS011;5184;51.376;7.148;2023-06-14T04:08:45;6.63;;;5.80;;
10277;SDS011;5184;51.376;7.148;2023-06-14T04:11:12;6.57;;;5.77;;
10277;SDS011;5184;51.376;7.148;2023-06-14T04:13:39;6.80;;;5.93;;
10277;SDS011;5184;51.376;7.148;2023-06-14T04:16:07;5.97;;;5.37;;
10277;SDS011;5184;51.376;7.148;2023-06-14T04:18:33;7.97;;;6.00;;
10277;SDS011;5184;51.376;7.148;2023-06-14T04:21:00;7.03;;;5.70;;
10277;SDS011;5184;51.376;7.148;2023-06-14T04:23:26;6.77;;;5.87;;
10277;SDS011;5184;51.376;7.148;2023-06-14T04:25:53;6.83;;;5.53;;
10277;SDS011;5184;51.376;7.148;2023-06-14T04:28:20;5.80;;;5.30;;
10277;SDS011;5184;51.376;7.148;2023-06-14T04:30:47;6.57;;;5.87;;
10277;SDS011;5184;51.376;7.148;2023-06-14T04:33:14;7.13;;;5.40;;
10277;SDS011;5184;51.376;7.148;2023-06-14T04:35:42;7.57;;;5.50;;
10277;SDS011;5184;51.376;7.148;2023-06-14T04:38:08;6.23;;;5.43;;
10277;SDS011;5184;51.376;7.148;2023-06-14T04:40:35;5.90;;;5.30;;
10277;SDS011;5184;51.376;7.148;2023-06-14T04:43:01;7.77;;;5.80;;
10277;SDS011;5184;51.376;7.148;2023-06-14T04:45:28;5.63;;;5.13;;
10277;SDS011;5184;51.376;7.148;2023-06-14T04:47:55;5.87;;;5.20;;
10277;SDS011;5184;51.376;7.148;2023-06-14T04:50:21;6.57;;;5.37;;
10277;SDS011;5184;51.376;7.148;2023-06-14T04:52:48;7.03;;;5.07;;
10277;SDS011;5184;51.376;7.148;2023-06-14T04:55:15;6.40;;;5.80;;
10277;SDS011;5184;51.376;7.148;2023-06-14T04:57:42;6.33;;;5.13;;
10277;SDS011;5184;51.376;7.148;2023-06-14T05:00:08;5.53;;;5.03;;
10277;SDS011;5184;51.376;7.148;2023-06-14T05:02:35;5.60;;;5.00;;
10277;SDS011;5184;51.376;7.148;2023-06-14T05:05:03;6.43;;;5.80;;
10277;SDS011;5184;51.376;7.148;2023-06-14T05:07:29;6.97;;;5.20;;
10277;SDS011;5184;51.376;7.148;2023-06-14T05:09:56;7.23;;;5.00;;
10277;SDS011;5184;51.376;7.148;2023-06-14T05:12:23;5.60;;;4.87;;
10277;SDS011;5184;51.376;7.148;2023-06-14T05:14:49;5.93;;;4.90;;
10277;SDS011;5184;51.376;7.148;2023-06-14T05:17:16;6.70;;;5.33;;
10277;SDS011;5184;51.376;7.148;2023-06-14T05:19:42;6.27;;;5.30;;
10277;SDS011;5184;51.376;7.148;2023-06-14T05:22:10;5.97;;;4.90;;
10277;SDS011;5184;51.376;7.148;2023-06-14T05:24:37;5.73;;;4.73;;
10277;SDS011;5184;51.376;7.148;2023-06-14T05:27:04;6.03;;;5.10;;
10277;SDS011;5184;51.376;7.148;2023-06-14T05:29:31;7.87;;;5.20;;
10277;SDS011;5184;51.376;7.148;2023-06-14T05:31:58;5.13;;;4.63;;
10277;SDS011;5184;51.376;7.148;2023-06-14T05:34:24;4.73;;;4.33;;
10277;SDS011;5184;51.376;7.148;2023-06-14T05:36:51;5.50;;;4.60;;
10277;SDS011;5184;51.376;7.148;2023-06-14T05:39:17;8.07;;;4.87;;
10277;SDS011;5184;51.376;7.148;2023-06-14T05:41:45;5.43;;;4.57;;
10277;SDS011;5184;51.376;7.148;2023-06-14T05:44:12;5.63;;;5.00;;
10277;SDS011;5184;51.376;7.148;2023-06-14T05:46:39;6.40;;;4.77;;
10277;SDS011;5184;51.376;7.148;2023-06-14T05:49:07;5.87;;;4.43;;
10277;SDS011;5184;51.376;7.148;2023-06-14T05:51:34;6.80;;;4.70;;
10277;SDS011;5184;51.376;7.148;2023-06-14T05:54:02;5.30;;;4.50;;
10277;SDS011;5184;51.376;7.148;2023-06-14T05:56:28;5.80;;;4.90;;
10277;SDS011;5184;51.376;7.148;2023-06-14T05:58:55;9.07;;;5.27;;
10277;SDS011;5184;51.376;7.148;2023-06-14T06:01:21;7.70;;;5.00;;
10277;SDS011;5184;51.376;7.148;2023-06-14T06:03:48;9.80;;;4.83;;
10277;SDS011;5184;51.376;7.148;2023-06-14T06:06:15;5.93;;;4.43;;
10277;SDS011;5184;51.376;7.148;2023-06-14T06:08:41;7.27;;;5.00;;
10277;SDS011;5184;51.376;7.148;2023-06-14T06:11:08;11.80;;;5.33;;
10277;SDS011;5184;51.376;7.148;2023-06-14T06:13:35;9.30;;;5.30;;
10277;SDS011;5184;51.376;7.148;2023-06-14T06:16:02;8.87;;;4.50;;
10277;SDS011;5184;51.376;7.148;2023-06-14T06:18:28;8.70;;;4.40;;
10277;SDS011;5184;51.376;7.148;2023-06-14T06:20:55;5.93;;;4.57;;
10277;SDS011;5184;51.376;7.148;2023-06-14T06:23:22;5.77;;;4.37;;
10277;SDS011;5184;51.376;7.148;2023-06-14T06:25:50;7.27;;;4.20;;
10277;SDS011;5184;51.376;7.148;2023-06-14T06:28:16;5.67;;;3.93;;
10277;SDS011;5184;51.376;7.148;2023-06-14T06:30:43;7.57;;;4.10;;
10277;SDS011;5184;51.376;7.148;2023-06-14T06:33:09;6.67;;;3.90;;
10277;SDS011;5184;51.376;7.148;2023-06-14T06:35:36;4.97;;;4.03;;
10277;SDS011;5184;51.376;7.148;2023-06-14T06:38:03;5.80;;;4.27;;
10277;SDS011;5184;51.376;7.148;2023-06-14T06:40:30;6.33;;;3.20;;
10277;SDS011;5184;51.376;7.148;2023-06-14T06:42:57;4.97;;;3.20;;
10277;SDS011;5184;51.376;7.148;2023-06-14T06:45:24;5.53;;;3.30;;
10277;SDS011;5184;51.376;7.148;2023-06-14T06:47:50;4.13;;;2.87;;
10277;SDS011;5184;51.376;7.148;2023-06-14T06:50:17;3.30;;;2.87;;
10277;SDS011;5184;51.376;7.148;2023-06-14T06:52:44;2.93;;;2.50;;
10277;SDS011;5184;51.376;7.148;2023-06-14T06:55:10;4.30;;;2.80;;
10277;SDS011;5184;51.376;7.148;2023-06-14T06:57:38;4.30;;;2.80;;
10277;SDS011;5184;51.376;7.148;2023-06-14T07:00:05;3.77;;;2.60;;
10277;SDS011;5184;51.376;7.148;2023-06-14T07:02:33;3.97;;;2.57;;
10277;SDS011;5184;51.376;7.148;2023-06-14T07:05:00;6.77;;;2.60;;
10277;SDS011;5184;51.376;7.148;2023-06-14T07:07:26;3.90;;;2.40;;
10277;SDS011;5184;51.376;7.148;2023-06-14T07:09:53;4.00;;;2.30;;
10277;SDS011;5184;51.376;7.148;2023-06-14T07:12:19;3.20;;;2.40;;
10277;SDS011;5184;51.376;7.148;2023-06-14T07:14:47;4.93;;;2.23;;
10277;SDS011;5184;51.376;7.148;2023-06-14T07:17:14;2.57;;;2.10;;
10277;SDS011;5184;51.376;7.148;2023-06-14T07:19:41;4.03;;;2.20;;
10277;SDS011;5184;51.376;7.148;2023-06-14T07:22:07;2.40;;;2.17;;
10277;SDS011;5184;51.376;7.148;2023-06-14T07:24:34;3.77;;;2.03;;
10277;SDS011;5184;51.376;7.148;2023-06-14T07:27:01;2.80;;;2.50;;
10277;SDS011;5184;51.376;7.148;2023-06-14T07:29:28;5.33;;;2.50;;
10277;SDS011;5184;51.376;7.148;2023-06-14T07:31:54;4.97;;;2.40;;
10277;SDS011;5184;51.376;7.148;2023-06-14T07:34:22;3.20;;;1.90;;
10277;SDS011;5184;51.376;7.148;2023-06-14T07:36:48;3.73;;;2.40;;
10277;SDS011;5184;51.376;7.148;2023-06-14T07:39:15;6.67;;;2.47;;
10277;SDS011;5184;51.376;7.148;2023-06-14T07:41:42;2.53;;;2.33;;
10277;SDS011;5184;51.376;7.148;2023-06-14T07:44:08;4.60;;;2.63;;
10277;SDS011;5184;51.376;7.148;2023-06-14T07:46:35;3.27;;;2.43;;
10277;SDS011;5184;51.376;7.148;2023-06-14T07:49:02;2.90;;;2.63;;
10277;SDS011;5184;51.376;7.148;2023-06-14T07:51:29;3.47;;;2.30;;
10277;SDS011;5184;51.376;7.148;2023-06-14T07:53:56;2.60;;;2.00;;
10277;SDS011;5184;51.376;7.148;2023-06-14T07:56:23;3.40;;;2.50;;
10277;SDS011;5184;51.376;7.148;2023-06-14T07:58:49;3.77;;;2.47;;
10277;SDS011;5184;51.376;7.148;2023-06-14T08:01:16;5.33;;;2.27;;
10277;SDS011;5184;51.376;7.148;2023-06-14T08:03:42;3.13;;;2.40;;
10277;SDS011;5184;51.376;7.148;2023-06-14T08:06:10;3.90;;;2.60;;
10277;SDS011;5184;51.376;7.148;2023-06-14T08:08:37;4.13;;;2.43;;
10277;SDS011;5184;51.376;7.148;2023-06-14T08:11:05;3.63;;;2.40;;
10277;SDS011;5184;51.376;7.148;2023-06-14T08:13:31;2.87;;;2.57;;
10277;SDS011;5184;51.376;7.148;2023-06-14T08:15:58;4.83;;;2.30;;
10277;SDS011;5184;51.376;7.148;2023-06-14T08:18:24;3.30;;;2.70;;
10277;SDS011;5184;51.376;7.148;2023-06-14T08:20:51;4.93;;;2.77;;
10277;SDS011;5184;51.376;7.148;2023-06-14T08:23:18;3.87;;;2.60;;
10277;SDS011;5184;51.376;7.148;2023-06-14T08:25:45;4.63;;;2.63;;
10277;SDS011;5184;51.376;7.148;2023-06-14T08:28:12;5.10;;;2.40;;
10277;SDS011;5184;51.376;7.148;2023-06-14T08:30:39;3.50;;;2.57;;
10277;SDS011;5184;51.376;7.148;2023-06-14T08:33:05;5.37;;;2.80;;
10277;SDS011;5184;51.376;7.148;2023-06-14T08:35:32;3.93;;;2.60;;
10277;SDS011;5184;51.376;7.148;2023-06-14T08:37:59;3.77;;;2.63;;
10277;SDS011;5184;51.376;7.148;2023-06-14T08:40:25;4.37;;;2.70;;
10277;SDS011;5184;51.376;7.148;2023-06-14T08:42:53;4.07;;;2.50;;
10277;SDS011;5184;51.376;7.148;2023-06-14T08:45:20;3.27;;;2.27;;
10277;SDS011;5184;51.376;7.148;2023-06-14T08:47:47;2.10;;;1.90;;
10277;SDS011;5184;51.376;7.148;2023-06-14T08:50:13;2.40;;;2.20;;
10277;SDS011;5184;51.376;7.148;2023-06-14T08:52:40;4.53;;;2.30;;
10277;SDS011;5184;51.376;7.148;2023-06-14T08:55:07;2.30;;;2.10;;
10277;SDS011;5184;51.376;7.148;2023-06-14T08:57:35;6.83;;;2.33;;
10277;SDS011;5184;51.376;7.148;2023-06-14T09:00:01;4.90;;;2.00;;
10277;SDS011;5184;51.376;7.148;2023-06-14T09:02:27;2.50;;;2.10;;
10277;SDS011;5184;51.376;7.148;2023-06-14T09:04:54;2.47;;;2.27;;
10277;SDS011;5184;51.376;7.148;2023-06-14T09:07:20;4.93;;;2.20;;
10277;SDS011;5184;51.376;7.148;2023-06-14T09:09:47;4.10;;;2.50;;
10277;SDS011;5184;51.376;7.148;2023-06-14T09:12:14;4.90;;;2.33;;
10277;SDS011;5184;51.376;7.148;2023-06-14T09:14:41;2.30;;;2.10;;
10277;SDS011;5184;51.376;7.148;2023-06-14T09:17:08;4.17;;;2.47;;
10277;SDS011;5184;51.376;7.148;2023-06-14T09:19:35;2.83;;;2.03;;
10277;SDS011;5184;51.376;7.148;2023-06-14T09:22:03;3.27;;;1.97;;
10277;SDS011;5184;51.376;7.148;2023-06-14T09:24:28;1.80;;;1.70;;
10277;SDS011;5184;51.376;7.148;2023-06-14T09:26:55;3.43;;;2.00;;
10277;SDS011;5184;51.376;7.148;2023-06-14T09:29:23;2.27;;;2.07;;
10277;SDS011;5184;51.376;7.148;2023-06-14T09:31:50;2.93;;;2.00;;
10277;SDS011;5184;51.376;7.148;2023-06-14T09:34:16;2.67;;;1.80;;
10277;SDS011;5184;51.376;7.148;2023-06-14T09:36:43;2.00;;;1.87;;
10277;SDS011;5184;51.376;7.148;2023-06-14T09:39:10;5.03;;;2.20;;
10277;SDS011;5184;51.376;7.148;2023-06-14T09:41:38;3.90;;;2.10;;
10277;SDS011;5184;51.376;7.148;2023-06-14T09:44:05;2.30;;;2.00;;
10277;SDS011;5184;51.376;7.148;2023-06-14T09:46:31;3.70;;;2.20;;
10277;SDS011;5184;51.376;7.148;2023-06-14T09:48:58;2.60;;;1.90;;
10277;SDS011;5184;51.376;7.148;2023-06-14T09:51:24;2.13;;;1.90;;
10277;SDS011;5184;51.376;7.148;2023-06-14T09:53:51;2.27;;;1.83;;
10277;SDS011;5184;51.376;7.148;2023-06-14T09:56:21;2.07;;;1.87;;
10277;SDS011;5184;51.376;7.148;2023-06-14T09:59:00;3.17;;;1.70;;
10277;SDS011;5184;51.376;7.148;2023-06-14T10:01:30;2.00;;;1.60;;
10277;SDS011;5184;51.376;7.148;2023-06-14T10:03:55;2.57;;;1.77;;
10277;SDS011;5184;51.376;7.148;2023-06-14T10:06:22;1.70;;;1.60;;
10277;SDS011;5184;51.376;7.148;2023-06-14T10:08:48;3.10;;;1.57;;
10277;SDS011;5184;51.376;7.148;2023-06-14T10:11:16;1.73;;;1.63;;
10277;SDS011;5184;51.376;7.148;2023-06-14T10:13:42;1.93;;;1.70;;
10277;SDS011;5184;51.376;7.148;2023-06-14T10:16:12;2.80;;;1.80;;
10277;SDS011;5184;51.376;7.148;2023-06-14T10:18:45;1.87;;;1.77;;
10277;SDS011;5184;51.376;7.148;2023-06-14T10:21:18;2.87;;;2.00;;
10277;SDS011;5184;51.376;7.148;2023-06-14T10:23:45;1.87;;;1.70;;
10277;SDS011;5184;51.376;7.148;2023-06-14T10:29:06;2.83;;;2.00;;
10277;SDS011;5184;51.376;7.148;2023-06-14T10:31:48;4.53;;;1.90;;
10277;SDS011;5184;51.376;7.148;2023-06-14T10:34:21;2.87;;;2.00;;
10277;SDS011;5184;51.376;7.148;2023-06-14T10:36:59;2.60;;;2.30;;
10277;SDS011;5184;51.376;7.148;2023-06-14T10:39:17;2.20;;;2.00;;
10277;SDS011;5184;51.376;7.148;2023-06-14T10:44:32;4.13;;;1.70;;
10277;SDS011;5184;51.376;7.148;2023-06-14T10:46:58;3.27;;;2.00;;
10277;SDS011;5184;51.376;7.148;2023-06-14T10:52:22;3.50;;;1.80;;
10277;SDS011;5184;51.376;7.148;2023-06-14T10:57:30;2.83;;;1.90;;
10277;SDS011;5184;51.376;7.148;2023-06-14T10:59:58;2.00;;;1.70;;
10277;SDS011;5184;51.376;7.148;2023-06-14T11:04:59;2.00;;;1.70;;
10277;SDS011;5184;51.376;7.148;2023-06-14T11:07:40;3.13;;;1.90;;
10277;SDS011;5184;51.376;7.148;2023-06-14T11:12:54;2.53;;;1.60;;
10277;SDS011;5184;51.376;7.148;2023-06-14T11:15:20;2.47;;;1.70;;
10277;SDS011;5184;51.376;7.148;2023-06-14T11:17:51;2.00;;;1.70;;
10277;SDS011;5184;51.376;7.148;2023-06-14T11:20:18;1.90;;;1.70;;
10277;SDS011;5184;51.376;7.148;2023-06-14T11:22:45;2.13;;;1.50;;
10277;SDS011;5184;51.376;7.148;2023-06-14T11:25:11;3.50;;;1.77;;
10277;SDS011;5184;51.376;7.148;2023-06-14T11:27:38;2.50;;;1.73;;
10277;SDS011;5184;51.376;7.148;2023-06-14T11:30:06;1.87;;;1.73;;
10277;SDS011;5184;51.376;7.148;2023-06-14T11:32:33;1.47;;;1.30;;
10277;SDS011;5184;51.376;7.148;2023-06-14T11:35:01;3.40;;;1.40;;
10277;SDS011;5184;51.376;7.148;2023-06-14T11:37:28;2.27;;;1.90;;
10277;SDS011;5184;51.376;7.148;2023-06-14T11:39:56;3.27;;;1.80;;
10277;SDS011;5184;51.376;7.148;2023-06-14T11:42:24;3.93;;;1.50;;
10277;SDS011;5184;51.376;7.148;2023-06-14T11:44:49;3.43;;;1.80;;
10277;SDS011;5184;51.376;7.148;2023-06-14T11:47:16;2.00;;;1.80;;
10277;SDS011;5184;51.376;7.148;2023-06-14T11:49:43;2.50;;;1.67;;
10277;SDS011;5184;51.376;7.148;2023-06-14T11:52:10;2.37;;;1.90;;
10277;SDS011;5184;51.376;7.148;2023-06-14T11:54:36;4.10;;;1.87;;
10277;SDS011;5184;51.376;7.148;2023-06-14T11:57:03;2.53;;;1.97;;
10277;SDS011;5184;51.376;7.148;2023-06-14T11:59:31;4.17;;;1.80;;
10277;SDS011;5184;51.376;7.148;2023-06-14T12:01:58;3.10;;;1.87;;
10277;SDS011;5184;51.376;7.148;2023-06-14T12:04:26;3.70;;;1.87;;
10277;SDS011;5184;51.376;7.148;2023-06-14T12:06:53;2.60;;;2.10;;
10277;SDS011;5184;51.376;7.148;2023-06-14T12:09:20;2.87;;;2.07;;
10277;SDS011;5184;51.376;7.148;2023-06-14T12:11:47;2.87;;;2.13;;
10277;SDS011;5184;51.376;7.148;2023-06-14T12:14:14;2.50;;;2.03;;
10277;SDS011;5184;51.376;7.148;2023-06-14T12:16:40;2.80;;;2.40;;
10277;SDS011;5184;51.376;7.148;2023-06-14T12:19:12;3.47;;;2.13;;
10277;SDS011;5184;51.376;7.148;2023-06-14T12:21:39;5.20;;;2.23;;
10277;SDS011;5184;51.376;7.148;2023-06-14T12:24:07;3.97;;;2.30;;
10277;SDS011;5184;51.376;7.148;2023-06-14T12:26:37;4.40;;;2.43;;
10277;SDS011;5184;51.376;7.148;2023-06-14T12:29:01;2.63;;;2.43;;
10277;SDS011;5184;51.376;7.148;2023-06-14T12:31:29;2.70;;;2.30;;
10277;SDS011;5184;51.376;7.148;2023-06-14T12:33:55;4.37;;;2.00;;
10277;SDS011;5184;51.376;7.148;2023-06-14T12:36:22;4.17;;;2.30;;
10277;SDS011;5184;51.376;7.148;2023-06-14T12:38:48;3.37;;;2.10;;
10277;SDS011;5184;51.376;7.148;2023-06-14T12:41:15;3.90;;;2.43;;
10277;SDS011;5184;51.376;7.148;2023-06-14T12:43:42;2.30;;;2.00;;
10277;SDS011;5184;51.376;7.148;2023-06-14T12:46:08;3.90;;;2.60;;
10277;SDS011;5184;51.376;7.148;2023-06-14T12:48:35;2.73;;;2.27;;
10277;SDS011;5184;51.376;7.148;2023-06-14T12:51:01;3.30;;;2.40;;
10277;SDS011;5184;51.376;7.148;2023-06-14T12:53:28;2.60;;;2.40;;
10277;SDS011;5184;51.376;7.148;2023-06-14T12:55:55;3.67;;;2.43;;
10277;SDS011;5184;51.376;7.148;2023-06-14T12:58:23;2.87;;;2.47;;
10277;SDS011;5184;51.376;7.148;2023-06-14T13:00:50;4.77;;;2.20;;
10277;SDS011;5184;51.376;7.148;2023-06-14T13:03:17;2.60;;;2.40;;
10277;SDS011;5184;51.376;7.148;2023-06-14T13:05:45;3.27;;;2.47;;
10277;SDS011;5184;51.376;7.148;2023-06-14T13:08:12;4.07;;;2.47;;
10277;SDS011;5184;51.376;7.148;2023-06-14T13:10:39;2.50;;;2.30;;
10277;SDS011;5184;51.376;7.148;2023-06-14T13:13:05;2.30;;;2.10;;
10277;SDS011;5184;51.376;7.148;2023-06-14T13:15:32;3.83;;;2.13;;
10277;SDS011;5184;51.376;7.148;2023-06-14T13:17:58;3.47;;;2.60;;
10277;SDS011;5184;51.376;7.148;2023-06-14T13:20:25;2.90;;;2.30;;
10277;SDS011;5184;51.376;7.148;2023-06-14T13:22:52;4.17;;;2.47;;
10277;SDS011;5184;51.376;7.148;2023-06-14T13:25:18;5.87;;;2.10;;
10277;SDS011;5184;51.376;7.148;2023-06-14T13:27:45;3.30;;;2.67;;
10277;SDS011;5184;51.376;7.148;2023-06-14T13:30:12;2.97;;;2.10;;
10277;SDS011;5184;51.376;7.148;2023-06-14T13:32:38;3.03;;;2.23;;
10277;SDS011;5184;51.376;7.148;2023-06-14T13:35:06;2.93;;;2.37;;
10277;SDS011;5184;51.376;7.148;2023-06-14T13:37:32;2.43;;;2.23;;
10277;SDS011;5184;51.376;7.148;2023-06-14T13:39:59;4.27;;;2.47;;
10277;SDS011;5184;51.376;7.148;2023-06-14T13:42:25;2.50;;;2.30;;
10277;SDS011;5184;51.376;7.148;2023-06-14T13:44:52;3.67;;;2.40;;
10277;SDS011;5184;51.376;7.148;2023-06-14T13:47:19;3.93;;;2.70;;
10277;SDS011;5184;51.376;7.148;2023-06-14T13:49:45;4.03;;;2.37;;
10277;SDS011;5184;51.376;7.148;2023-06-14T13:52:12;4.63;;;2.60;;
10277;SDS011;5184;51.376;7.148;2023-06-14T13:54:38;2.97;;;2.70;;
10277;SDS011;5184;51.376;7.148;2023-06-14T13:57:06;3.20;;;2.40;;
10277;SDS011;5184;51.376;7.148;2023-06-14T13:59:33;2.50;;;2.30;;
10277;SDS011;5184;51.376;7.148;2023-06-14T14:02:00;3.03;;;2.40;;
10277;SDS011;5184;51.376;7.148;2023-06-14T14:04:28;4.37;;;2.53;;
10277;SDS011;5184;51.376;7.148;2023-06-14T14:06:55;3.30;;;2.43;;
10277;SDS011;5184;51.376;7.148;2023-06-14T14:09:22;4.23;;;2.27;;
10277;SDS011;5184;51.376;7.148;2023-06-14T14:11:50;3.60;;;2.50;;
10277;SDS011;5184;51.376;7.148;2023-06-14T14:14:16;3.90;;;2.40;;
10277;SDS011;5184;51.376;7.148;2023-06-14T14:16:43;3.33;;;2.47;;
10277;SDS011;5184;51.376;7.148;2023-06-14T14:19:10;3.80;;;2.57;;
10277;SDS011;5184;51.376;7.148;2023-06-14T14:21:36;3.20;;;2.70;;
10277;SDS011;5184;51.376;7.148;2023-06-14T14:24:03;4.27;;;2.70;;
10277;SDS011;5184;51.376;7.148;2023-06-14T14:26:30;5.10;;;2.60;;
10277;SDS011;5184;51.376;7.148;2023-06-14T14:28:56;2.80;;;2.30;;
10277;SDS011;5184;51.376;7.148;2023-06-14T14:31:23;2.40;;;2.27;;
10277;SDS011;5184;51.376;7.148;2023-06-14T14:33:49;3.03;;;2.70;;
10277;SDS011;5184;51.376;7.148;2023-06-14T14:36:16;3.13;;;2.70;;
10277;SDS011;5184;51.376;7.148;2023-06-14T14:38:43;3.27;;;2.40;;
10277;SDS011;5184;51.376;7.148;2023-06-14T14:41:11;2.70;;;2.50;;
10277;SDS011;5184;51.376;7.148;2023-06-14T14:43:38;4.47;;;2.57;;
10277;SDS011;5184;51.376;7.148;2023-06-14T14:46:05;3.57;;;2.37;;
10277;SDS011;5184;51.376;7.148;2023-06-14T14:48:33;2.87;;;2.60;;
10277;SDS011;5184;51.376;7.148;2023-06-14T14:51:00;3.80;;;2.70;;
10277;SDS011;5184;51.376;7.148;2023-06-14T14:53:28;3.30;;;2.43;;
10277;SDS011;5184;51.376;7.148;2023-06-14T14:55:55;2.70;;;2.50;;
10277;SDS011;5184;51.376;7.148;2023-06-14T14:58:21;2.77;;;2.57;;
10277;SDS011;5184;51.376;7.148;2023-06-14T15:00:48;3.87;;;2.87;;
10277;SDS011;5184;51.376;7.148;2023-06-14T15:03:15;3.20;;;2.50;;
10277;SDS011;5184;51.376;7.148;2023-06-14T15:05:42;4.73;;;3.13;;
10277;SDS011;5184;51.376;7.148;2023-06-14T15:08:09;4.33;;;2.50;;
10277;SDS011;5184;51.376;7.148;2023-06-14T15:10:38;3.43;;;2.50;;
10277;SDS011;5184;51.376;7.148;2023-06-14T15:13:04;3.00;;;2.33;;
10277;SDS011;5184;51.376;7.148;2023-06-14T15:15:31;2.87;;;2.37;;